sensor_id;sensor_type;location;lat;lon;timestamp;P1;durP1;ratioP1;P2;durP2;ratioP2
537;SDS011;254;48.524;8.926;2022-07-17T00:00:03;5.2;;;3.2;;
537;SDS011;254;48.524;8.926;2022-07-17T00:01:03;4.6;;;2.7;;
537;SDS011;254;48.524;8.926;2022-07-17T00:02:02;4.9;;;2.9;;
537;SDS011;254;48.524;8.926;2022-07-17T00:03:02;4.5;;;2.8;;
537;SDS011;254;48.524;8.926;2022-07-17T00:04:02;4.7;;;3.1;;
537;SDS011;254;48.524;8.926;2022-07-17T00:05:02;5.0;;;3.2;;
537;SDS011;254;48.524;8.926;2022-07-17T00:06:03;5.8;;;3.3;;
537;SDS011;254;48.524;8.926;2022-07-17T00:07:02;7.7;;;3.2;;
537;SDS011;254;48.524;8.926;2022-07-17T00:08:02;4.8;;;3.3;;
537;SDS011;254;48.524;8.926;2022-07-17T00:09:02;3.8;;;3.1;;
537;SDS011;254;48.524;8.926;2022-07-17T00:10:03;4.4;;;2.7;;
537;SDS011;254;48.524;8.926;2022-07-17T00:11:02;4.9;;;2.8;;
537;SDS011;254;48.524;8.926;2022-07-17T00:12:02;3.6;;;2.7;;
537;SDS011;254;48.524;8.926;2022-07-17T00:13:03;3.9;;;2.6;;
537;SDS011;254;48.524;8.926;2022-07-17T00:14:02;5.7;;;3.0;;
537;SDS011;254;48.524;8.926;2022-07-17T00:15:02;7.0;;;3.1;;
537;SDS011;254;48.524;8.926;2022-07-17T00:16:03;7.3;;;3.2;;
537;SDS011;254;48.524;8.926;2022-07-17T00:17:02;4.4;;;2.9;;
537;SDS011;254;48.524;8.926;2022-07-17T00:18:02;4.3;;;3.1;;
537;SDS011;254;48.524;8.926;2022-07-17T00:19:03;5.2;;;3.2;;
537;SDS011;254;48.524;8.926;2022-07-17T00:20:03;6.4;;;3.2;;
537;SDS011;254;48.524;8.926;2022-07-17T00:21:02;5.5;;;3.3;;
537;SDS011;254;48.524;8.926;2022-07-17T00:22:02;5.7;;;3.3;;
537;SDS011;254;48.524;8.926;2022-07-17T00:23:02;5.5;;;3.3;;
537;SDS011;254;48.524;8.926;2022-07-17T00:24:03;5.0;;;3.4;;
537;SDS011;254;48.524;8.926;2022-07-17T00:25:02;4.8;;;3.4;;
537;SDS011;254;48.524;8.926;2022-07-17T00:26:02;7.7;;;3.5;;
537;SDS011;254;48.524;8.926;2022-07-17T00:27:02;3.4;;;3.1;;
537;SDS011;254;48.524;8.926;2022-07-17T00:28:02;3.5;;;2.9;;
537;SDS011;254;48.524;8.926;2022-07-17T00:29:02;4.2;;;3.1;;
537;SDS011;254;48.524;8.926;2022-07-17T00:30:03;3.9;;;2.9;;
537;SDS011;254;48.524;8.926;2022-07-17T00:31:02;4.6;;;3.3;;
537;SDS011;254;48.524;8.926;2022-07-17T00:32:03;4.4;;;3.0;;
537;SDS011;254;48.524;8.926;2022-07-17T00:33:02;3.7;;;3.4;;
537;SDS011;254;48.524;8.926;2022-07-17T00:34:02;6.0;;;3.1;;
537;SDS011;254;48.524;8.926;2022-07-17T00:35:03;5.0;;;3.0;;
537;SDS011;254;48.524;8.926;2022-07-17T00:36:03;5.3;;;2.6;;
537;SDS011;254;48.524;8.926;2022-07-17T00:37:02;5.2;;;3.1;;
537;SDS011;254;48.524;8.926;2022-07-17T00:38:02;5.2;;;3.1;;
537;SDS011;254;48.524;8.926;2022-07-17T00:39:03;3.9;;;2.9;;
537;SDS011;254;48.524;8.926;2022-07-17T00:40:03;5.5;;;2.9;;
537;SDS011;254;48.524;8.926;2022-07-17T00:41:02;3.6;;;2.8;;
537;SDS011;254;48.524;8.926;2022-07-17T00:42:03;6.5;;;3.3;;
537;SDS011;254;48.524;8.926;2022-07-17T00:43:01;3.7;;;2.9;;
537;SDS011;254;48.524;8.926;2022-07-17T00:44:03;5.3;;;2.6;;
537;SDS011;254;48.524;8.926;2022-07-17T00:45:03;3.8;;;2.9;;
537;SDS011;254;48.524;8.926;2022-07-17T00:46:03;3.5;;;2.5;;
537;SDS011;254;48.524;8.926;2022-07-17T00:47:02;5.3;;;3.1;;
537;SDS011;254;48.524;8.926;2022-07-17T00:48:03;4.8;;;3.3;;
537;SDS011;254;48.524;8.926;2022-07-17T00:49:03;4.6;;;3.1;;
537;SDS011;254;48.524;8.926;2022-07-17T00:50:02;5.6;;;3.0;;
537;SDS011;254;48.524;8.926;2022-07-17T00:51:02;5.3;;;2.8;;
537;SDS011;254;48.524;8.926;2022-07-17T00:52:03;4.1;;;2.9;;
537;SDS011;254;48.524;8.926;2022-07-17T00:53:02;5.1;;;2.9;;
537;SDS011;254;48.524;8.926;2022-07-17T00:54:02;4.8;;;2.9;;
537;SDS011;254;48.524;8.926;2022-07-17T00:55:04;5.3;;;2.8;;
537;SDS011;254;48.524;8.926;2022-07-17T00:56:03;5.7;;;2.8;;
537;SDS011;254;48.524;8.926;2022-07-17T00:57:02;4.1;;;2.7;;
537;SDS011;254;48.524;8.926;2022-07-17T00:58:03;3.4;;;2.9;;
537;SDS011;254;48.524;8.926;2022-07-17T00:59:03;4.0;;;2.8;;
537;SDS011;254;48.524;8.926;2022-07-17T01:00:03;4.9;;;2.9;;
537;SDS011;254;48.524;8.926;2022-07-17T01:01:03;3.7;;;2.7;;
537;SDS011;254;48.524;8.926;2022-07-17T01:02:02;4.0;;;2.9;;
537;SDS011;254;48.524;8.926;2022-07-17T01:03:02;3.6;;;2.8;;
537;SDS011;254;48.524;8.926;2022-07-17T01:04:02;3.6;;;2.9;;
537;SDS011;254;48.524;8.926;2022-07-17T01:05:02;3.0;;;2.6;;
537;SDS011;254;48.524;8.926;2022-07-17T01:06:03;6.5;;;2.8;;
537;SDS011;254;48.524;8.926;2022-07-17T01:07:03;4.0;;;3.0;;
537;SDS011;254;48.524;8.926;2022-07-17T01:08:02;3.9;;;2.9;;
537;SDS011;254;48.524;8.926;2022-07-17T01:09:03;4.3;;;2.6;;
537;SDS011;254;48.524;8.926;2022-07-17T01:10:02;4.7;;;3.1;;
537;SDS011;254;48.524;8.926;2022-07-17T01:11:02;3.7;;;2.8;;
537;SDS011;254;48.524;8.926;2022-07-17T01:12:03;6.2;;;3.3;;
537;SDS011;254;48.524;8.926;2022-07-17T01:13:02;5.3;;;2.8;;
537;SDS011;254;48.524;8.926;2022-07-17T01:14:02;5.5;;;3.0;;
537;SDS011;254;48.524;8.926;2022-07-17T01:15:02;4.4;;;2.8;;
537;SDS011;254;48.524;8.926;2022-07-17T01:16:03;6.1;;;2.9;;
537;SDS011;254;48.524;8.926;2022-07-17T01:17:02;6.4;;;2.9;;
537;SDS011;254;48.524;8.926;2022-07-17T01:18:04;4.0;;;3.0;;
537;SDS011;254;48.524;8.926;2022-07-17T01:19:03;4.0;;;2.7;;
537;SDS011;254;48.524;8.926;2022-07-17T01:20:02;4.4;;;2.8;;
537;SDS011;254;48.524;8.926;2022-07-17T01:21:03;5.8;;;3.1;;
537;SDS011;254;48.524;8.926;2022-07-17T01:22:03;3.7;;;2.8;;
537;SDS011;254;48.524;8.926;2022-07-17T01:23:02;3.5;;;2.6;;
537;SDS011;254;48.524;8.926;2022-07-17T01:24:02;3.7;;;2.9;;
537;SDS011;254;48.524;8.926;2022-07-17T01:25:03;5.8;;;3.4;;
537;SDS011;254;48.524;8.926;2022-07-17T01:26:02;5.4;;;3.1;;
537;SDS011;254;48.524;8.926;2022-07-17T01:27:03;4.3;;;3.0;;
537;SDS011;254;48.524;8.926;2022-07-17T01:28:02;5.4;;;3.2;;
537;SDS011;254;48.524;8.926;2022-07-17T01:29:02;5.1;;;3.2;;
537;SDS011;254;48.524;8.926;2022-07-17T01:30:02;3.8;;;3.0;;
537;SDS011;254;48.524;8.926;2022-07-17T01:31:02;4.6;;;3.2;;
537;SDS011;254;48.524;8.926;2022-07-17T01:32:03;3.8;;;2.9;;
537;SDS011;254;48.524;8.926;2022-07-17T01:33:02;6.7;;;2.9;;
537;SDS011;254;48.524;8.926;2022-07-17T01:34:02;5.3;;;3.1;;
537;SDS011;254;48.524;8.926;2022-07-17T01:35:03;5.1;;;3.0;;
537;SDS011;254;48.524;8.926;2022-07-17T01:36:02;5.2;;;3.3;;
537;SDS011;254;48.524;8.926;2022-07-17T01:37:02;4.1;;;3.1;;
537;SDS011;254;48.524;8.926;2022-07-17T01:38:02;4.3;;;2.8;;
537;SDS011;254;48.524;8.926;2022-07-17T01:39:03;4.7;;;3.1;;
537;SDS011;254;48.524;8.926;2022-07-17T01:40:02;6.2;;;3.1;;
537;SDS011;254;48.524;8.926;2022-07-17T01:41:02;3.7;;;3.1;;
537;SDS011;254;48.524;8.926;2022-07-17T01:42:02;7.2;;;3.0;;
537;SDS011;254;48.524;8.926;2022-07-17T01:43:02;5.0;;;3.4;;
537;SDS011;254;48.524;8.926;2022-07-17T01:44:03;4.1;;;3.0;;
537;SDS011;254;48.524;8.926;2022-07-17T01:45:03;14.5;;;3.9;;
537;SDS011;254;48.524;8.926;2022-07-17T01:46:02;10.1;;;3.6;;
537;SDS011;254;48.524;8.926;2022-07-17T01:47:03;10.3;;;4.0;;
537;SDS011;254;48.524;8.926;2022-07-17T01:48:02;8.1;;;3.5;;
537;SDS011;254;48.524;8.926;2022-07-17T01:49:02;7.4;;;4.0;;
537;SDS011;254;48.524;8.926;2022-07-17T01:50:04;6.2;;;3.8;;
537;SDS011;254;48.524;8.926;2022-07-17T01:51:03;6.8;;;3.4;;
537;SDS011;254;48.524;8.926;2022-07-17T01:52:02;4.9;;;3.2;;
537;SDS011;254;48.524;8.926;2022-07-17T01:53:02;5.0;;;3.4;;
537;SDS011;254;48.524;8.926;2022-07-17T01:54:03;4.2;;;3.1;;
537;SDS011;254;48.524;8.926;2022-07-17T01:55:02;6.0;;;3.4;;
537;SDS011;254;48.524;8.926;2022-07-17T01:56:02;4.5;;;3.3;;
537;SDS011;254;48.524;8.926;2022-07-17T01:57:02;4.2;;;3.2;;
537;SDS011;254;48.524;8.926;2022-07-17T01:58:05;4.8;;;3.4;;
537;SDS011;254;48.524;8.926;2022-07-17T01:59:03;4.3;;;3.0;;
537;SDS011;254;48.524;8.926;2022-07-17T02:00:04;6.0;;;3.3;;
537;SDS011;254;48.524;8.926;2022-07-17T02:01:03;6.3;;;3.4;;
537;SDS011;254;48.524;8.926;2022-07-17T02:02:02;6.1;;;3.5;;
537;SDS011;254;48.524;8.926;2022-07-17T02:03:02;5.0;;;3.2;;
537;SDS011;254;48.524;8.926;2022-07-17T02:04:02;5.0;;;3.5;;
537;SDS011;254;48.524;8.926;2022-07-17T02:05:02;5.0;;;3.4;;
537;SDS011;254;48.524;8.926;2022-07-17T02:06:02;6.3;;;3.0;;
537;SDS011;254;48.524;8.926;2022-07-17T02:07:02;4.0;;;3.0;;
537;SDS011;254;48.524;8.926;2022-07-17T02:08:03;3.9;;;3.4;;
537;SDS011;254;48.524;8.926;2022-07-17T02:09:02;3.8;;;3.4;;
537;SDS011;254;48.524;8.926;2022-07-17T02:10:03;7.2;;;3.4;;
537;SDS011;254;48.524;8.926;2022-07-17T02:11:01;5.9;;;3.5;;
537;SDS011;254;48.524;8.926;2022-07-17T02:12:03;4.7;;;3.5;;
537;SDS011;254;48.524;8.926;2022-07-17T02:13:03;4.5;;;3.6;;
537;SDS011;254;48.524;8.926;2022-07-17T02:14:03;3.5;;;3.1;;
537;SDS011;254;48.524;8.926;2022-07-17T02:15:02;6.5;;;3.5;;
537;SDS011;254;48.524;8.926;2022-07-17T02:16:02;5.5;;;3.2;;
537;SDS011;254;48.524;8.926;2022-07-17T02:17:02;4.5;;;3.3;;
537;SDS011;254;48.524;8.926;2022-07-17T02:18:02;4.8;;;3.2;;
537;SDS011;254;48.524;8.926;2022-07-17T02:19:02;6.5;;;3.4;;
537;SDS011;254;48.524;8.926;2022-07-17T02:20:03;4.1;;;3.2;;
537;SDS011;254;48.524;8.926;2022-07-17T02:21:02;3.9;;;3.1;;
537;SDS011;254;48.524;8.926;2022-07-17T02:22:02;3.9;;;3.5;;
537;SDS011;254;48.524;8.926;2022-07-17T02:23:03;5.0;;;3.0;;
537;SDS011;254;48.524;8.926;2022-07-17T02:24:01;4.1;;;3.0;;
537;SDS011;254;48.524;8.926;2022-07-17T02:25:03;5.5;;;3.0;;
537;SDS011;254;48.524;8.926;2022-07-17T02:26:03;3.6;;;3.1;;
537;SDS011;254;48.524;8.926;2022-07-17T02:27:02;3.7;;;3.0;;
537;SDS011;254;48.524;8.926;2022-07-17T02:28:02;3.6;;;2.9;;
537;SDS011;254;48.524;8.926;2022-07-17T02:29:02;4.0;;;3.2;;
537;SDS011;254;48.524;8.926;2022-07-17T02:30:03;3.4;;;2.9;;
537;SDS011;254;48.524;8.926;2022-07-17T02:31:02;3.9;;;3.5;;
537;SDS011;254;48.524;8.926;2022-07-17T02:32:02;5.2;;;3.1;;
537;SDS011;254;48.524;8.926;2022-07-17T02:33:03;5.1;;;3.8;;
537;SDS011;254;48.524;8.926;2022-07-17T02:34:03;4.1;;;3.2;;
537;SDS011;254;48.524;8.926;2022-07-17T02:35:02;4.8;;;3.4;;
537;SDS011;254;48.524;8.926;2022-07-17T02:36:02;6.3;;;3.5;;
537;SDS011;254;48.524;8.926;2022-07-17T02:37:02;8.4;;;3.7;;
537;SDS011;254;48.524;8.926;2022-07-17T02:38:02;5.4;;;3.2;;
537;SDS011;254;48.524;8.926;2022-07-17T02:39:02;6.1;;;3.1;;
537;SDS011;254;48.524;8.926;2022-07-17T02:40:03;4.4;;;3.2;;
537;SDS011;254;48.524;8.926;2022-07-17T02:41:02;5.3;;;2.9;;
537;SDS011;254;48.524;8.926;2022-07-17T02:42:04;4.7;;;3.2;;
537;SDS011;254;48.524;8.926;2022-07-17T02:43:03;6.1;;;3.4;;
537;SDS011;254;48.524;8.926;2022-07-17T02:44:03;4.1;;;2.9;;
537;SDS011;254;48.524;8.926;2022-07-17T02:45:02;3.9;;;3.2;;
537;SDS011;254;48.524;8.926;2022-07-17T02:46:02;4.7;;;3.4;;
537;SDS011;254;48.524;8.926;2022-07-17T02:47:02;4.6;;;3.2;;
537;SDS011;254;48.524;8.926;2022-07-17T02:48:02;4.1;;;3.3;;
537;SDS011;254;48.524;8.926;2022-07-17T02:49:02;4.1;;;3.6;;
537;SDS011;254;48.524;8.926;2022-07-17T02:50:03;6.2;;;3.8;;
537;SDS011;254;48.524;8.926;2022-07-17T02:51:02;4.5;;;3.6;;
537;SDS011;254;48.524;8.926;2022-07-17T02:52:02;4.7;;;3.9;;
537;SDS011;254;48.524;8.926;2022-07-17T02:53:02;4.6;;;3.9;;
537;SDS011;254;48.524;8.926;2022-07-17T02:54:04;5.1;;;3.8;;
537;SDS011;254;48.524;8.926;2022-07-17T02:55:02;4.7;;;4.0;;
537;SDS011;254;48.524;8.926;2022-07-17T02:56:03;5.2;;;4.1;;
537;SDS011;254;48.524;8.926;2022-07-17T02:57:02;4.7;;;4.0;;
537;SDS011;254;48.524;8.926;2022-07-17T02:58:02;5.7;;;3.8;;
537;SDS011;254;48.524;8.926;2022-07-17T02:59:03;4.8;;;3.6;;
537;SDS011;254;48.524;8.926;2022-07-17T03:00:04;4.6;;;3.8;;
537;SDS011;254;48.524;8.926;2022-07-17T03:01:02;5.6;;;4.0;;
537;SDS011;254;48.524;8.926;2022-07-17T03:02:02;5.4;;;3.6;;
537;SDS011;254;48.524;8.926;2022-07-17T03:03:02;5.8;;;3.8;;
537;SDS011;254;48.524;8.926;2022-07-17T03:04:02;4.6;;;4.1;;
537;SDS011;254;48.524;8.926;2022-07-17T03:05:03;4.9;;;4.1;;
537;SDS011;254;48.524;8.926;2022-07-17T03:06:02;5.6;;;3.7;;
537;SDS011;254;48.524;8.926;2022-07-17T03:07:02;5.8;;;3.6;;
537;SDS011;254;48.524;8.926;2022-07-17T03:08:02;4.1;;;3.7;;
537;SDS011;254;48.524;8.926;2022-07-17T03:09:02;5.6;;;3.9;;
537;SDS011;254;48.524;8.926;2022-07-17T03:10:03;5.2;;;3.8;;
537;SDS011;254;48.524;8.926;2022-07-17T03:11:02;4.4;;;4.0;;
537;SDS011;254;48.524;8.926;2022-07-17T03:12:02;4.7;;;4.2;;
537;SDS011;254;48.524;8.926;2022-07-17T03:13:02;4.9;;;4.3;;
537;SDS011;254;48.524;8.926;2022-07-17T03:14:02;6.5;;;4.5;;
537;SDS011;254;48.524;8.926;2022-07-17T03:15:03;9.8;;;4.3;;
537;SDS011;254;48.524;8.926;2022-07-17T03:16:02;7.2;;;4.1;;
537;SDS011;254;48.524;8.926;2022-07-17T03:17:02;4.9;;;3.8;;
537;SDS011;254;48.524;8.926;2022-07-17T03:18:03;4.4;;;3.8;;
537;SDS011;254;48.524;8.926;2022-07-17T03:19:03;5.4;;;4.3;;
537;SDS011;254;48.524;8.926;2022-07-17T03:20:02;4.4;;;4.0;;
537;SDS011;254;48.524;8.926;2022-07-17T03:21:02;5.6;;;3.9;;
537;SDS011;254;48.524;8.926;2022-07-17T03:22:02;5.7;;;4.1;;
537;SDS011;254;48.524;8.926;2022-07-17T03:23:04;4.8;;;3.9;;
537;SDS011;254;48.524;8.926;2022-07-17T03:24:03;5.6;;;3.7;;
537;SDS011;254;48.524;8.926;2022-07-17T03:25:02;5.1;;;3.7;;
537;SDS011;254;48.524;8.926;2022-07-17T03:26:02;4.5;;;3.7;;
537;SDS011;254;48.524;8.926;2022-07-17T03:27:02;6.0;;;4.5;;
537;SDS011;254;48.524;8.926;2022-07-17T03:28:02;4.4;;;4.0;;
537;SDS011;254;48.524;8.926;2022-07-17T03:29:02;5.0;;;4.0;;
537;SDS011;254;48.524;8.926;2022-07-17T03:30:02;4.5;;;4.1;;
537;SDS011;254;48.524;8.926;2022-07-17T03:31:01;5.6;;;4.3;;
537;SDS011;254;48.524;8.926;2022-07-17T03:32:02;6.6;;;4.4;;
537;SDS011;254;48.524;8.926;2022-07-17T03:33:03;5.2;;;3.5;;
537;SDS011;254;48.524;8.926;2022-07-17T03:34:01;5.4;;;3.9;;
537;SDS011;254;48.524;8.926;2022-07-17T03:35:02;9.4;;;4.4;;
537;SDS011;254;48.524;8.926;2022-07-17T03:36:03;5.5;;;3.9;;
537;SDS011;254;48.524;8.926;2022-07-17T03:37:01;6.1;;;3.4;;
537;SDS011;254;48.524;8.926;2022-07-17T03:38:02;5.1;;;3.8;;
537;SDS011;254;48.524;8.926;2022-07-17T03:39:03;4.5;;;3.9;;
537;SDS011;254;48.524;8.926;2022-07-17T03:40:02;5.4;;;3.9;;
537;SDS011;254;48.524;8.926;2022-07-17T03:41:02;6.1;;;3.8;;
537;SDS011;254;48.524;8.926;2022-07-17T03:42:02;4.6;;;3.8;;
537;SDS011;254;48.524;8.926;2022-07-17T03:43:02;6.1;;;3.8;;
537;SDS011;254;48.524;8.926;2022-07-17T03:44:02;6.9;;;3.8;;
537;SDS011;254;48.524;8.926;2022-07-17T03:45:02;5.2;;;4.2;;
537;SDS011;254;48.524;8.926;2022-07-17T03:46:03;4.2;;;3.6;;
537;SDS011;254;48.524;8.926;2022-07-17T03:47:01;5.9;;;3.7;;
537;SDS011;254;48.524;8.926;2022-07-17T03:48:02;6.1;;;3.7;;
537;SDS011;254;48.524;8.926;2022-07-17T03:49:04;4.1;;;3.4;;
537;SDS011;254;48.524;8.926;2022-07-17T03:50:03;4.8;;;3.4;;
537;SDS011;254;48.524;8.926;2022-07-17T03:51:02;4.2;;;3.8;;
537;SDS011;254;48.524;8.926;2022-07-17T03:52:02;5.5;;;3.7;;
537;SDS011;254;48.524;8.926;2022-07-17T03:53:02;5.0;;;3.9;;
537;SDS011;254;48.524;8.926;2022-07-17T03:54:02;5.3;;;3.7;;
537;SDS011;254;48.524;8.926;2022-07-17T03:55:02;7.6;;;4.0;;
537;SDS011;254;48.524;8.926;2022-07-17T03:56:03;6.0;;;4.0;;
537;SDS011;254;48.524;8.926;2022-07-17T03:57:02;5.3;;;3.8;;
537;SDS011;254;48.524;8.926;2022-07-17T03:58:02;4.0;;;3.6;;
537;SDS011;254;48.524;8.926;2022-07-17T03:59:03;4.3;;;3.6;;
537;SDS011;254;48.524;8.926;2022-07-17T04:00:03;3.9;;;3.6;;
537;SDS011;254;48.524;8.926;2022-07-17T04:01:02;6.3;;;4.3;;
537;SDS011;254;48.524;8.926;2022-07-17T04:02:03;6.6;;;3.8;;
537;SDS011;254;48.524;8.926;2022-07-17T04:03:01;8.6;;;4.2;;
537;SDS011;254;48.524;8.926;2022-07-17T04:04:02;8.4;;;3.9;;
537;SDS011;254;48.524;8.926;2022-07-17T04:05:03;5.6;;;3.7;;
537;SDS011;254;48.524;8.926;2022-07-17T04:06:01;4.9;;;3.7;;
537;SDS011;254;48.524;8.926;2022-07-17T04:07:02;9.3;;;4.3;;
537;SDS011;254;48.524;8.926;2022-07-17T04:08:02;5.7;;;3.7;;
537;SDS011;254;48.524;8.926;2022-07-17T04:09:03;4.2;;;3.5;;
537;SDS011;254;48.524;8.926;2022-07-17T04:10:03;5.2;;;3.7;;
537;SDS011;254;48.524;8.926;2022-07-17T04:11:03;7.8;;;4.2;;
537;SDS011;254;48.524;8.926;2022-07-17T04:12:02;6.3;;;4.0;;
537;SDS011;254;48.524;8.926;2022-07-17T04:13:02;4.8;;;3.6;;
537;SDS011;254;48.524;8.926;2022-07-17T04:14:02;4.3;;;3.9;;
537;SDS011;254;48.524;8.926;2022-07-17T04:15:03;4.6;;;3.7;;
537;SDS011;254;48.524;8.926;2022-07-17T04:16:04;5.2;;;3.6;;
537;SDS011;254;48.524;8.926;2022-07-17T04:17:02;6.6;;;3.9;;
537;SDS011;254;48.524;8.926;2022-07-17T04:18:03;4.0;;;3.5;;
537;SDS011;254;48.524;8.926;2022-07-17T04:19:01;4.5;;;3.8;;
537;SDS011;254;48.524;8.926;2022-07-17T04:20:03;6.4;;;4.1;;
537;SDS011;254;48.524;8.926;2022-07-17T04:21:03;7.1;;;3.9;;
537;SDS011;254;48.524;8.926;2022-07-17T04:22:01;4.1;;;3.6;;
537;SDS011;254;48.524;8.926;2022-07-17T04:23:02;5.1;;;3.9;;
537;SDS011;254;48.524;8.926;2022-07-17T04:24:02;6.3;;;4.2;;
537;SDS011;254;48.524;8.926;2022-07-17T04:25:03;7.1;;;4.1;;
537;SDS011;254;48.524;8.926;2022-07-17T04:26:02;4.8;;;3.7;;
537;SDS011;254;48.524;8.926;2022-07-17T04:27:02;5.5;;;4.1;;
537;SDS011;254;48.524;8.926;2022-07-17T04:28:02;5.3;;;4.1;;
537;SDS011;254;48.524;8.926;2022-07-17T04:29:02;7.1;;;4.2;;
537;SDS011;254;48.524;8.926;2022-07-17T04:30:02;4.0;;;3.6;;
537;SDS011;254;48.524;8.926;2022-07-17T04:31:03;7.8;;;3.9;;
537;SDS011;254;48.524;8.926;2022-07-17T04:32:01;4.3;;;3.8;;
537;SDS011;254;48.524;8.926;2022-07-17T04:33:02;4.8;;;3.7;;
537;SDS011;254;48.524;8.926;2022-07-17T04:34:03;4.9;;;4.1;;
537;SDS011;254;48.524;8.926;2022-07-17T04:35:03;5.5;;;3.9;;
537;SDS011;254;48.524;8.926;2022-07-17T04:36:04;8.2;;;3.8;;
537;SDS011;254;48.524;8.926;2022-07-17T04:37:02;6.9;;;3.8;;
537;SDS011;254;48.524;8.926;2022-07-17T04:38:03;4.4;;;3.7;;
537;SDS011;254;48.524;8.926;2022-07-17T04:39:03;5.4;;;3.8;;
537;SDS011;254;48.524;8.926;2022-07-17T04:40:02;4.9;;;4.0;;
537;SDS011;254;48.524;8.926;2022-07-17T04:41:03;5.0;;;3.5;;
537;SDS011;254;48.524;8.926;2022-07-17T04:42:02;4.2;;;3.8;;
537;SDS011;254;48.524;8.926;2022-07-17T04:43:02;6.0;;;4.1;;
537;SDS011;254;48.524;8.926;2022-07-17T04:44:03;5.6;;;3.6;;
537;SDS011;254;48.524;8.926;2022-07-17T04:45:03;5.9;;;4.1;;
537;SDS011;254;48.524;8.926;2022-07-17T04:46:02;4.1;;;3.7;;
537;SDS011;254;48.524;8.926;2022-07-17T04:47:02;4.2;;;3.8;;
537;SDS011;254;48.524;8.926;2022-07-17T04:48:03;4.9;;;4.0;;
537;SDS011;254;48.524;8.926;2022-07-17T04:49:02;4.3;;;3.9;;
537;SDS011;254;48.524;8.926;2022-07-17T04:50:02;6.0;;;4.2;;
537;SDS011;254;48.524;8.926;2022-07-17T04:51:03;4.2;;;3.8;;
537;SDS011;254;48.524;8.926;2022-07-17T04:52:01;4.7;;;3.6;;
537;SDS011;254;48.524;8.926;2022-07-17T04:53:02;4.7;;;3.6;;
537;SDS011;254;48.524;8.926;2022-07-17T04:54:03;4.5;;;3.9;;
537;SDS011;254;48.524;8.926;2022-07-17T04:55:04;6.3;;;3.9;;
537;SDS011;254;48.524;8.926;2022-07-17T04:56:02;5.3;;;3.6;;
537;SDS011;254;48.524;8.926;2022-07-17T04:57:03;4.4;;;4.0;;
537;SDS011;254;48.524;8.926;2022-07-17T04:58:02;6.1;;;3.8;;
537;SDS011;254;48.524;8.926;2022-07-17T04:59:02;4.2;;;3.6;;
537;SDS011;254;48.524;8.926;2022-07-17T05:00:04;4.9;;;3.6;;
537;SDS011;254;48.524;8.926;2022-07-17T05:01:03;5.5;;;3.7;;
537;SDS011;254;48.524;8.926;2022-07-17T05:02:02;4.7;;;3.7;;
537;SDS011;254;48.524;8.926;2022-07-17T05:03:02;5.5;;;4.0;;
537;SDS011;254;48.524;8.926;2022-07-17T05:04:02;5.4;;;3.8;;
537;SDS011;254;48.524;8.926;2022-07-17T05:05:02;5.9;;;3.9;;
537;SDS011;254;48.524;8.926;2022-07-17T05:06:03;5.1;;;3.8;;
537;SDS011;254;48.524;8.926;2022-07-17T05:07:02;4.3;;;3.9;;
537;SDS011;254;48.524;8.926;2022-07-17T05:08:02;5.0;;;3.6;;
537;SDS011;254;48.524;8.926;2022-07-17T05:09:02;8.1;;;4.2;;
537;SDS011;254;48.524;8.926;2022-07-17T05:10:02;4.7;;;4.0;;
537;SDS011;254;48.524;8.926;2022-07-17T05:11:01;4.9;;;3.2;;
537;SDS011;254;48.524;8.926;2022-07-17T05:12:02;4.1;;;3.4;;
537;SDS011;254;48.524;8.926;2022-07-17T05:13:03;4.8;;;3.9;;
537;SDS011;254;48.524;8.926;2022-07-17T05:14:01;5.0;;;3.8;;
537;SDS011;254;48.524;8.926;2022-07-17T05:15:03;6.5;;;3.4;;
537;SDS011;254;48.524;8.926;2022-07-17T05:16:03;6.1;;;3.7;;
537;SDS011;254;48.524;8.926;2022-07-17T05:17:02;5.3;;;4.0;;
537;SDS011;254;48.524;8.926;2022-07-17T05:18:02;4.7;;;3.6;;
537;SDS011;254;48.524;8.926;2022-07-17T05:19:02;3.9;;;3.3;;
537;SDS011;254;48.524;8.926;2022-07-17T05:20:03;4.4;;;4.0;;
537;SDS011;254;48.524;8.926;2022-07-17T05:21:02;4.4;;;3.8;;
537;SDS011;254;48.524;8.926;2022-07-17T05:22:02;4.1;;;3.7;;
537;SDS011;254;48.524;8.926;2022-07-17T05:23:02;4.8;;;3.6;;
537;SDS011;254;48.524;8.926;2022-07-17T05:24:03;4.4;;;3.7;;
537;SDS011;254;48.524;8.926;2022-07-17T05:25:04;5.6;;;3.9;;
537;SDS011;254;48.524;8.926;2022-07-17T05:26:02;4.7;;;3.4;;
537;SDS011;254;48.524;8.926;2022-07-17T05:27:03;5.1;;;3.5;;
537;SDS011;254;48.524;8.926;2022-07-17T05:28:02;6.6;;;3.7;;
537;SDS011;254;48.524;8.926;2022-07-17T05:29:02;5.7;;;3.6;;
537;SDS011;254;48.524;8.926;2022-07-17T05:30:03;8.7;;;3.8;;
537;SDS011;254;48.524;8.926;2022-07-17T05:31:01;3.9;;;3.2;;
537;SDS011;254;48.524;8.926;2022-07-17T05:32:02;5.7;;;3.6;;
537;SDS011;254;48.524;8.926;2022-07-17T05:33:03;4.5;;;3.5;;
537;SDS011;254;48.524;8.926;2022-07-17T05:34:01;4.5;;;3.3;;
537;SDS011;254;48.524;8.926;2022-07-17T05:35:02;5.4;;;3.3;;
537;SDS011;254;48.524;8.926;2022-07-17T05:36:03;6.0;;;3.7;;
537;SDS011;254;48.524;8.926;2022-07-17T05:37:01;6.3;;;3.6;;
537;SDS011;254;48.524;8.926;2022-07-17T05:38:02;4.0;;;3.6;;
537;SDS011;254;48.524;8.926;2022-07-17T05:39:03;4.9;;;3.6;;
537;SDS011;254;48.524;8.926;2022-07-17T05:40:02;5.4;;;3.4;;
537;SDS011;254;48.524;8.926;2022-07-17T05:41:02;5.8;;;3.7;;
537;SDS011;254;48.524;8.926;2022-07-17T05:42:02;6.4;;;3.6;;
537;SDS011;254;48.524;8.926;2022-07-17T05:43:02;4.0;;;3.6;;
537;SDS011;254;48.524;8.926;2022-07-17T05:44:03;5.0;;;3.8;;
537;SDS011;254;48.524;8.926;2022-07-17T05:45:02;4.7;;;3.7;;
537;SDS011;254;48.524;8.926;2022-07-17T05:46:02;4.4;;;3.6;;
537;SDS011;254;48.524;8.926;2022-07-17T05:47:02;4.4;;;3.8;;
537;SDS011;254;48.524;8.926;2022-07-17T05:48:02;5.6;;;3.7;;
537;SDS011;254;48.524;8.926;2022-07-17T05:49:02;4.1;;;3.7;;
537;SDS011;254;48.524;8.926;2022-07-17T05:50:03;7.1;;;3.5;;
537;SDS011;254;48.524;8.926;2022-07-17T05:51:02;7.9;;;3.7;;
537;SDS011;254;48.524;8.926;2022-07-17T05:52:02;5.0;;;3.5;;
537;SDS011;254;48.524;8.926;2022-07-17T05:53:02;4.2;;;3.6;;
537;SDS011;254;48.524;8.926;2022-07-17T05:54:02;4.5;;;3.6;;
537;SDS011;254;48.524;8.926;2022-07-17T05:55:02;4.3;;;3.2;;
537;SDS011;254;48.524;8.926;2022-07-17T05:56:02;3.8;;;3.4;;
537;SDS011;254;48.524;8.926;2022-07-17T05:57:02;5.8;;;3.8;;
537;SDS011;254;48.524;8.926;2022-07-17T05:58:02;5.2;;;3.7;;
537;SDS011;254;48.524;8.926;2022-07-17T05:59:02;5.1;;;3.6;;
537;SDS011;254;48.524;8.926;2022-07-17T06:00:03;5.7;;;3.5;;
537;SDS011;254;48.524;8.926;2022-07-17T06:01:02;5.7;;;4.1;;
537;SDS011;254;48.524;8.926;2022-07-17T06:02:02;4.5;;;3.4;;
537;SDS011;254;48.524;8.926;2022-07-17T06:03:04;4.0;;;3.6;;
537;SDS011;254;48.524;8.926;2022-07-17T06:04:02;5.7;;;3.3;;
537;SDS011;254;48.524;8.926;2022-07-17T06:05:02;4.7;;;3.6;;
537;SDS011;254;48.524;8.926;2022-07-17T06:06:03;5.0;;;3.5;;
537;SDS011;254;48.524;8.926;2022-07-17T06:07:01;4.9;;;3.7;;
537;SDS011;254;48.524;8.926;2022-07-17T06:08:02;4.8;;;3.6;;
537;SDS011;254;48.524;8.926;2022-07-17T06:09:03;3.7;;;3.4;;
537;SDS011;254;48.524;8.926;2022-07-17T06:10:02;6.3;;;3.5;;
537;SDS011;254;48.524;8.926;2022-07-17T06:11:02;5.6;;;3.6;;
537;SDS011;254;48.524;8.926;2022-07-17T06:12:02;5.3;;;3.6;;
537;SDS011;254;48.524;8.926;2022-07-17T06:13:02;4.0;;;3.5;;
537;SDS011;254;48.524;8.926;2022-07-17T06:14:02;4.4;;;3.7;;
537;SDS011;254;48.524;8.926;2022-07-17T06:15:02;4.0;;;3.6;;
537;SDS011;254;48.524;8.926;2022-07-17T06:16:03;6.3;;;3.9;;
537;SDS011;254;48.524;8.926;2022-07-17T06:17:01;5.4;;;3.8;;
537;SDS011;254;48.524;8.926;2022-07-17T06:18:02;5.9;;;3.8;;
537;SDS011;254;48.524;8.926;2022-07-17T06:19:03;4.2;;;3.5;;
537;SDS011;254;48.524;8.926;2022-07-17T06:20:02;3.9;;;3.3;;
537;SDS011;254;48.524;8.926;2022-07-17T06:21:01;4.7;;;3.6;;
537;SDS011;254;48.524;8.926;2022-07-17T06:22:02;4.1;;;3.6;;
537;SDS011;254;48.524;8.926;2022-07-17T06:23:03;5.8;;;4.0;;
537;SDS011;254;48.524;8.926;2022-07-17T06:24:02;5.4;;;3.5;;
537;SDS011;254;48.524;8.926;2022-07-17T06:25:02;6.0;;;3.6;;
537;SDS011;254;48.524;8.926;2022-07-17T06:26:02;5.5;;;3.6;;
537;SDS011;254;48.524;8.926;2022-07-17T06:27:02;4.5;;;3.2;;
537;SDS011;254;48.524;8.926;2022-07-17T06:28:02;3.9;;;3.5;;
537;SDS011;254;48.524;8.926;2022-07-17T06:29:02;4.5;;;3.9;;
537;SDS011;254;48.524;8.926;2022-07-17T06:30:03;4.5;;;4.1;;
537;SDS011;254;48.524;8.926;2022-07-17T06:31:01;4.0;;;3.5;;
537;SDS011;254;48.524;8.926;2022-07-17T06:32:02;5.3;;;3.7;;
537;SDS011;254;48.524;8.926;2022-07-17T06:33:03;4.2;;;3.5;;
537;SDS011;254;48.524;8.926;2022-07-17T06:34:02;4.2;;;3.5;;
537;SDS011;254;48.524;8.926;2022-07-17T06:35:02;5.1;;;3.8;;
537;SDS011;254;48.524;8.926;2022-07-17T06:36:02;7.6;;;3.8;;
537;SDS011;254;48.524;8.926;2022-07-17T06:37:03;4.0;;;3.6;;